Time;durP1;ratioP1;P1;durP2;ratioP2;P2;SDS_P1;SDS_P2;PMS_P1;PMS_P2;Temp;Humidity;BMP_temperature;BMP_pressure;BME280_temperature;BME280_humidity;BME280_pressure;Samples;Min_cycle;Max_cycle;Signal;HPM_P1;HPM_P2
2023/08/13 00:02:22;;;;;;;1.20;1.10;;;;;;;;;;5015464;28;20168;-49
2023/08/13 00:04:48;;;;;;;1.35;1.20;;;;;;;;;;4993331;28;20731;-48
2023/08/13 00:07:14;;;;;;;2.17;1.30;;;;;;;;;;5006459;28;20188;-48
2023/08/13 00:09:43;;;;;;;3.13;1.10;;;;;;;;;;4996360;28;20189;-48
2023/08/13 00:12:09;;;;;;;1.20;1.10;;;;;;;;;;4998293;28;20209;-48
2023/08/13 00:14:35;;;;;;;1.55;1.00;;;;;;;;;;5001937;28;20196;-48
2023/08/13 00:17:01;;;;;;;1.73;1.20;;;;;;;;;;4997204;28;20196;-48
2023/08/13 00:19:27;;;;;;;1.63;1.23;;;;;;;;;;4997511;28;20235;-48
2023/08/13 00:21:53;;;;;;;0.95;0.90;;;;;;;;;;4995901;28;20251;-48
2023/08/13 00:24:19;;;;;;;2.13;0.88;;;;;;;;;;4997249;28;20303;-48
2023/08/13 00:26:45;;;;;;;2.88;1.17;;;;;;;;;;4999948;28;20205;-48
2023/08/13 00:29:11;;;;;;;1.48;1.17;;;;;;;;;;4994540;28;20252;-48
2023/08/13 00:31:36;;;;;;;1.08;1.00;;;;;;;;;;4998305;28;20239;-48
2023/08/13 00:34:03;;;;;;;2.03;1.15;;;;;;;;;;4997858;28;20295;-48
2023/08/13 00:36:28;;;;;;;1.52;1.23;;;;;;;;;;4992442;28;20174;-48
2023/08/13 00:38:54;;;;;;;1.30;0.85;;;;;;;;;;4998228;28;20177;-48
2023/08/13 00:41:20;;;;;;;2.05;1.52;;;;;;;;;;4998143;28;20205;-48
2023/08/13 00:43:46;;;;;;;1.13;1.00;;;;;;;;;;5002939;28;20192;-48
2023/08/13 00:46:12;;;;;;;1.10;1.00;;;;;;;;;;4999150;28;20177;-48
2023/08/13 00:48:39;;;;;;;1.42;1.00;;;;;;;;;;5003257;28;20279;-48
2023/08/13 00:51:06;;;;;;;2.10;0.90;;;;;;;;;;5017567;28;20227;-48
2023/08/13 00:53:33;;;;;;;1.13;1.00;;;;;;;;;;4999083;28;20610;-48
2023/08/13 00:55:59;;;;;;;1.30;1.20;;;;;;;;;;4996287;28;20193;-48
2023/08/13 00:58:25;;;;;;;1.00;1.00;;;;;;;;;;4988003;28;20482;-48
2023/08/13 01:00:52;;;;;;;1.33;1.10;;;;;;;;;;4997663;28;20252;-48
2023/08/13 01:03:18;;;;;;;1.10;1.00;;;;;;;;;;4997687;28;20187;-48
2023/08/13 01:05:44;;;;;;;3.20;1.05;;;;;;;;;;5001422;28;20288;-48
2023/08/13 01:08:29;;;;;;;1.08;0.98;;;;;;;;;;4997220;28;20514;-48
2023/08/13 01:11:00;;;;;;;1.20;1.00;;;;;;;;;;4994316;28;20186;-48
2023/08/13 01:13:31;;;;;;;1.67;1.02;;;;;;;;;;4997164;28;20538;-48
2023/08/13 01:15:58;;;;;;;1.00;1.00;;;;;;;;;;4997253;28;20193;-48
2023/08/13 01:18:24;;;;;;;2.33;1.13;;;;;;;;;;4995558;28;20235;-48
2023/08/13 01:20:51;;;;;;;2.10;0.98;;;;;;;;;;4997463;28;20215;-48
2023/08/13 01:23:16;;;;;;;2.63;1.20;;;;;;;;;;4997277;28;20459;-48
2023/08/13 01:25:46;;;;;;;1.02;1.02;;;;;;;;;;4994596;28;20177;-48
2023/08/13 01:28:18;;;;;;;1.65;1.10;;;;;;;;;;4996638;28;20192;-48
2023/08/13 01:30:50;;;;;;;1.00;0.90;;;;;;;;;;4995327;28;20303;-48
2023/08/13 01:33:29;;;;;;;2.10;1.20;;;;;;;;;;4996259;28;20200;-48
2023/08/13 01:35:57;;;;;;;1.67;1.02;;;;;;;;;;4991945;28;20769;-48
2023/08/13 01:38:23;;;;;;;1.25;1.05;;;;;;;;;;4992837;28;20179;-48
2023/08/13 01:40:50;;;;;;;1.58;1.00;;;;;;;;;;4990140;28;20209;-48
2023/08/13 01:43:16;;;;;;;1.55;1.15;;;;;;;;;;4991606;28;20264;-48
2023/08/13 01:45:42;;;;;;;0.98;0.93;;;;;;;;;;5004590;28;20268;-48
2023/08/13 01:48:08;;;;;;;1.65;1.02;;;;;;;;;;4995597;28;20181;-48
2023/08/13 01:50:34;;;;;;;1.10;0.93;;;;;;;;;;4994277;28;20181;-48
2023/08/13 01:53:00;;;;;;;1.50;1.15;;;;;;;;;;4992192;28;20250;-48
2023/08/13 01:55:26;;;;;;;1.20;1.10;;;;;;;;;;4997025;28;20185;-48
2023/08/13 01:57:51;;;;;;;1.25;0.90;;;;;;;;;;4994638;28;20188;-48
2023/08/13 02:00:17;;;;;;;1.90;1.02;;;;;;;;;;4988910;28;20255;-48
2023/08/13 02:02:43;;;;;;;1.35;1.00;;;;;;;;;;4996230;28;20180;-48
2023/08/13 02:05:09;;;;;;;0.93;0.93;;;;;;;;;;4996042;28;20523;-48
2023/08/13 02:07:35;;;;;;;1.15;1.00;;;;;;;;;;5004099;28;20177;-48
2023/08/13 02:10:01;;;;;;;1.13;1.00;;;;;;;;;;4996021;28;20812;-48
2023/08/13 02:12:27;;;;;;;1.13;0.85;;;;;;;;;;4996175;28;20457;-48
2023/08/13 02:14:53;;;;;;;0.95;0.95;;;;;;;;;;4992294;28;20213;-48
2023/08/13 02:17:19;;;;;;;1.10;0.85;;;;;;;;;;4999194;28;20221;-48
2023/08/13 02:19:45;;;;;;;1.08;0.98;;;;;;;;;;5015674;28;20668;-48
2023/08/13 02:22:11;;;;;;;1.10;0.90;;;;;;;;;;4994580;28;20185;-48
2023/08/13 02:24:37;;;;;;;0.88;0.88;;;;;;;;;;4995652;28;20184;-48
2023/08/13 02:27:03;;;;;;;1.10;0.88;;;;;;;;;;4993291;28;20178;-48
2023/08/13 02:29:29;;;;;;;2.22;0.90;;;;;;;;;;5011659;28;20185;-48
2023/08/13 02:31:55;;;;;;;2.55;0.98;;;;;;;;;;4993499;28;20237;-48
2023/08/13 02:34:22;;;;;;;0.85;0.85;;;;;;;;;;4996525;28;20193;-48
2023/08/13 02:36:48;;;;;;;1.40;1.17;;;;;;;;;;4995978;28;20185;-48
2023/08/13 02:39:14;;;;;;;1.00;1.00;;;;;;;;;;4996282;28;20276;-48
2023/08/13 02:41:40;;;;;;;1.10;1.00;;;;;;;;;;4994467;28;20208;-48
2023/08/13 02:44:06;;;;;;;0.77;0.77;;;;;;;;;;4995899;28;20259;-48
2023/08/13 02:46:32;;;;;;;1.20;1.00;;;;;;;;;;5000117;28;20197;-49
2023/08/13 02:48:58;;;;;;;1.05;0.95;;;;;;;;;;4994475;28;20223;-48
2023/08/13 02:51:24;;;;;;;1.10;1.10;;;;;;;;;;5005068;28;20226;-48
2023/08/13 02:53:50;;;;;;;0.88;0.88;;;;;;;;;;4996173;28;20220;-48
2023/08/13 02:56:17;;;;;;;1.05;0.95;;;;;;;;;;4995774;28;20280;-48
2023/08/13 02:58:42;;;;;;;1.20;1.10;;;;;;;;;;4992035;28;20196;-48
2023/08/13 03:01:09;;;;;;;1.02;0.93;;;;;;;;;;4992380;28;20213;-48
2023/08/13 03:03:35;;;;;;;1.17;1.08;;;;;;;;;;4995262;28;20288;-48
2023/08/13 03:06:01;;;;;;;1.10;1.00;;;;;;;;;;4994460;28;20256;-48
2023/08/13 03:08:27;;;;;;;1.27;1.00;;;;;;;;;;4995650;28;20488;-48
2023/08/13 03:10:53;;;;;;;2.80;1.20;;;;;;;;;;4994208;28;20556;-48
2023/08/13 03:13:19;;;;;;;1.10;1.00;;;;;;;;;;4994553;28;20204;-48
2023/08/13 03:15:45;;;;;;;1.13;1.02;;;;;;;;;;4995619;28;20201;-48
2023/08/13 03:18:11;;;;;;;2.22;1.02;;;;;;;;;;4995891;28;20212;-48
2023/08/13 03:20:37;;;;;;;0.70;0.70;;;;;;;;;;4992652;28;20205;-48
2023/08/13 03:23:03;;;;;;;1.10;1.00;;;;;;;;;;4994703;28;20209;-48
2023/08/13 03:25:29;;;;;;;1.13;1.10;;;;;;;;;;4995025;28;20180;-48
2023/08/13 03:27:55;;;;;;;1.23;1.05;;;;;;;;;;4994747;28;20537;-48
2023/08/13 03:30:21;;;;;;;1.05;1.05;;;;;;;;;;5012840;28;20200;-48
2023/08/13 03:32:47;;;;;;;1.20;1.10;;;;;;;;;;5014621;28;20195;-48
2023/08/13 03:35:13;;;;;;;1.02;1.00;;;;;;;;;;5015357;28;20283;-48
2023/08/13 03:37:39;;;;;;;1.10;1.00;;;;;;;;;;5009765;28;20212;-48
2023/08/13 03:40:08;;;;;;;1.10;1.00;;;;;;;;;;4998481;28;20284;-48
2023/08/13 03:42:34;;;;;;;0.90;0.90;;;;;;;;;;4994568;28;20182;-48
2023/08/13 03:45:00;;;;;;;1.48;0.93;;;;;;;;;;4996399;28;20560;-48
2023/08/13 03:47:26;;;;;;;1.25;1.15;;;;;;;;;;4993049;28;20272;-48
2023/08/13 03:49:52;;;;;;;0.85;0.85;;;;;;;;;;5008088;28;20184;-48
2023/08/13 03:52:18;;;;;;;1.38;1.00;;;;;;;;;;4998083;28;20219;-48
2023/08/13 03:54:44;;;;;;;0.90;0.90;;;;;;;;;;4997647;28;20204;-48
2023/08/13 03:57:10;;;;;;;1.15;1.02;;;;;;;;;;4994639;28;20189;-48
2023/08/13 03:59:36;;;;;;;2.25;1.08;;;;;;;;;;4998650;28;20300;-48
2023/08/13 04:02:02;;;;;;;1.23;1.00;;;;;;;;;;4997660;28;20192;-48
2023/08/13 04:04:28;;;;;;;1.10;1.00;;;;;;;;;;4999219;28;20177;-48
2023/08/13 04:06:54;;;;;;;1.25;1.15;;;;;;;;;;4998865;28;20178;-48
2023/08/13 04:09:20;;;;;;;1.13;0.90;;;;;;;;;;4998719;28;20178;-48
2023/08/13 04:11:46;;;;;;;2.15;1.00;;;;;;;;;;4994332;28;20204;-48
2023/08/13 04:14:12;;;;;;;1.13;1.02;;;;;;;;;;4998428;28;20173;-48
2023/08/13 04:16:37;;;;;;;1.00;1.00;;;;;;;;;;4998871;28;20170;-48
2023/08/13 04:19:03;;;;;;;0.90;0.90;;;;;;;;;;4996520;28;20169;-48
2023/08/13 04:21:29;;;;;;;0.90;0.90;;;;;;;;;;4997762;28;20443;-48
2023/08/13 04:23:56;;;;;;;1.10;0.98;;;;;;;;;;4998350;28;20232;-48
2023/08/13 04:26:22;;;;;;;0.90;0.90;;;;;;;;;;4985853;28;20186;-48
2023/08/13 04:28:48;;;;;;;3.05;1.10;;;;;;;;;;4996033;28;20186;-48
2023/08/13 04:31:15;;;;;;;1.10;1.00;;;;;;;;;;4990200;28;20193;-48
2023/08/13 04:33:41;;;;;;;0.90;0.90;;;;;;;;;;5017577;28;20180;-48
2023/08/13 04:36:07;;;;;;;1.10;1.00;;;;;;;;;;5018225;28;20279;-48
2023/08/13 04:38:33;;;;;;;1.17;1.08;;;;;;;;;;4999795;28;20185;-48
2023/08/13 04:40:59;;;;;;;0.98;0.98;;;;;;;;;;4996282;28;20220;-48
2023/08/13 04:43:25;;;;;;;0.90;0.90;;;;;;;;;;5005506;28;20879;-48
2023/08/13 04:45:51;;;;;;;1.10;1.00;;;;;;;;;;4992251;28;20193;-48
2023/08/13 04:48:17;;;;;;;0.93;0.93;;;;;;;;;;4996421;28;20197;-48
2023/08/13 04:50:43;;;;;;;0.80;0.80;;;;;;;;;;4998281;28;20188;-48
2023/08/13 04:53:09;;;;;;;1.15;1.00;;;;;;;;;;4997343;28;20482;-48
2023/08/13 04:55:35;;;;;;;1.27;1.15;;;;;;;;;;4998046;28;20188;-48
2023/08/13 04:58:01;;;;;;;1.15;1.05;;;;;;;;;;4991923;28;20201;-48
2023/08/13 05:00:27;;;;;;;1.10;1.00;;;;;;;;;;4994915;28;20205;-48
2023/08/13 05:02:53;;;;;;;2.25;1.27;;;;;;;;;;4993788;28;20181;-48
2023/08/13 05:05:19;;;;;;;1.08;1.08;;;;;;;;;;4999505;28;20188;-48
2023/08/13 05:07:46;;;;;;;1.17;1.10;;;;;;;;;;4987780;28;20173;-48
2023/08/13 05:10:12;;;;;;;1.25;0.90;;;;;;;;;;4992804;28;20181;-48
2023/08/13 05:12:38;;;;;;;1.38;1.27;;;;;;;;;;5000404;28;20262;-48
2023/08/13 05:15:04;;;;;;;1.00;1.00;;;;;;;;;;5005455;28;20182;-48
2023/08/13 05:17:30;;;;;;;1.30;1.20;;;;;;;;;;4992138;28;20569;-48
2023/08/13 05:19:56;;;;;;;1.92;1.60;;;;;;;;;;5007900;28;20210;-48
2023/08/13 05:22:22;;;;;;;1.70;1.50;;;;;;;;;;5014024;28;20267;-48
2023/08/13 05:24:48;;;;;;;2.13;1.70;;;;;;;;;;5001547;28;20263;-48
2023/08/13 05:27:14;;;;;;;1.70;1.50;;;;;;;;;;5013068;28;20197;-48
2023/08/13 05:29:40;;;;;;;3.75;1.83;;;;;;;;;;5001136;28;20177;-48
2023/08/13 05:32:06;;;;;;;2.00;1.80;;;;;;;;;;4999864;28;20181;-48
2023/08/13 05:34:32;;;;;;;2.60;1.98;;;;;;;;;;4992736;28;20211;-48
2023/08/13 05:36:58;;;;;;;4.35;2.47;;;;;;;;;;4997061;28;20199;-48
2023/08/13 05:39:24;;;;;;;3.05;2.08;;;;;;;;;;4997410;28;20212;-48
2023/08/13 05:41:50;;;;;;;2.63;2.15;;;;;;;;;;5006877;28;20191;-48
2023/08/13 05:44:16;;;;;;;2.30;2.10;;;;;;;;;;4986718;28;20193;-48
2023/08/13 05:46:41;;;;;;;9.43;2.28;;;;;;;;;;4993370;28;20186;-48
2023/08/13 05:49:07;;;;;;;6.00;2.65;;;;;;;;;;4995958;28;20178;-48
2023/08/13 05:51:33;;;;;;;10.18;3.00;;;;;;;;;;4996750;28;20684;-48
2023/08/13 05:53:59;;;;;;;22.30;4.90;;;;;;;;;;5000379;28;20420;-48
2023/08/13 05:56:25;;;;;;;45.97;7.18;;;;;;;;;;5000642;28;20177;-48
2023/08/13 05:58:51;;;;;;;38.88;7.78;;;;;;;;;;4991742;28;20208;-48
2023/08/13 06:01:17;;;;;;;37.97;6.95;;;;;;;;;;4993612;28;20232;-48
2023/08/13 06:03:43;;;;;;;30.10;6.00;;;;;;;;;;4995667;28;20439;-48
2023/08/13 06:06:09;;;;;;;24.88;5.25;;;;;;;;;;4998538;28;20188;-48
2023/08/13 06:08:35;;;;;;;26.02;6.35;;;;;;;;;;4995671;28;20188;-48
2023/08/13 06:11:01;;;;;;;14.05;4.57;;;;;;;;;;5004677;28;20177;-48
2023/08/13 06:13:27;;;;;;;13.95;4.60;;;;;;;;;;5008813;28;20480;-48
2023/08/13 06:15:53;;;;;;;12.82;3.78;;;;;;;;;;4994049;28;20188;-48
2023/08/13 06:18:21;;;;;;;12.10;3.85;;;;;;;;;;4996434;28;20456;-48
2023/08/13 06:20:47;;;;;;;14.20;3.55;;;;;;;;;;4987993;28;20284;-48
2023/08/13 06:23:13;;;;;;;8.88;3.20;;;;;;;;;;4998154;28;20361;-48
2023/08/13 06:25:39;;;;;;;6.90;3.10;;;;;;;;;;4994819;28;20173;-48
2023/08/13 06:28:05;;;;;;;8.60;3.15;;;;;;;;;;4996760;28;20208;-48
2023/08/13 06:30:31;;;;;;;9.93;3.03;;;;;;;;;;4992974;28;20218;-48
2023/08/13 06:32:57;;;;;;;5.97;3.10;;;;;;;;;;4990895;28;20264;-48
2023/08/13 06:35:23;;;;;;;3.05;2.40;;;;;;;;;;5000368;28;20193;-48
2023/08/13 06:37:49;;;;;;;7.05;3.20;;;;;;;;;;4988276;28;20181;-48
2023/08/13 06:40:15;;;;;;;3.22;2.80;;;;;;;;;;4991894;28;20448;-48
2023/08/13 06:42:41;;;;;;;5.47;2.92;;;;;;;;;;4991200;28;20185;-48
2023/08/13 06:45:07;;;;;;;7.38;3.08;;;;;;;;;;4994532;28;20188;-48
2023/08/13 06:47:33;;;;;;;4.75;2.83;;;;;;;;;;4995395;28;20189;-48
2023/08/13 06:49:59;;;;;;;2.78;2.45;;;;;;;;;;4995977;28;20169;-48
2023/08/13 06:52:25;;;;;;;4.55;2.80;;;;;;;;;;4995274;28;20201;-48
2023/08/13 06:54:51;;;;;;;3.72;3.03;;;;;;;;;;5004472;28;20181;-48
2023/08/13 06:57:17;;;;;;;5.80;2.50;;;;;;;;;;5005594;28;20243;-48
2023/08/13 06:59:43;;;;;;;4.55;3.13;;;;;;;;;;4990116;28;20206;-48
2023/08/13 07:02:09;;;;;;;3.03;2.70;;;;;;;;;;5008659;28;20267;-48
2023/08/13 07:04:35;;;;;;;5.28;3.35;;;;;;;;;;5013950;28;20546;-48
2023/08/13 07:07:01;;;;;;;5.65;3.03;;;;;;;;;;4995738;28;20264;-48
2023/08/13 07:09:27;;;;;;;15.65;3.17;;;;;;;;;;5004167;28;20201;-48
2023/08/13 07:11:54;;;;;;;7.85;3.05;;;;;;;;;;5005523;28;20204;-48
2023/08/13 07:14:20;;;;;;;5.63;2.63;;;;;;;;;;4991384;28;20447;-48
2023/08/13 07:16:46;;;;;;;5.13;3.00;;;;;;;;;;5013710;28;20192;-48
2023/08/13 07:19:12;;;;;;;4.53;2.50;;;;;;;;;;5015480;28;20168;-48
2023/08/13 07:21:38;;;;;;;3.00;2.60;;;;;;;;;;5014924;28;20780;-48
2023/08/13 07:24:04;;;;;;;4.82;2.95;;;;;;;;;;4999577;28;20204;-48
2023/08/13 07:26:31;;;;;;;6.10;2.90;;;;;;;;;;4992893;28;20594;-48
2023/08/13 07:28:57;;;;;;;6.88;2.90;;;;;;;;;;4995651;28;20177;-48
2023/08/13 07:31:23;;;;;;;3.78;2.67;;;;;;;;;;4995810;28;20204;-48
2023/08/13 07:33:49;;;;;;;3.60;2.70;;;;;;;;;;4991622;28;20212;-48
2023/08/13 07:36:16;;;;;;;3.22;2.83;;;;;;;;;;4995351;28;20176;-49
2023/08/13 07:38:42;;;;;;;3.10;2.63;;;;;;;;;;4995618;28;20188;-48
2023/08/13 07:41:08;;;;;;;5.70;2.60;;;;;;;;;;4989527;28;20292;-48
2023/08/13 07:43:34;;;;;;;5.55;2.85;;;;;;;;;;4994893;28;20181;-48
2023/08/13 07:46:00;;;;;;;3.88;2.40;;;;;;;;;;4987115;28;20625;-48
2023/08/13 07:48:26;;;;;;;2.90;2.60;;;;;;;;;;4985981;28;20182;-48
2023/08/13 07:50:52;;;;;;;5.88;3.03;;;;;;;;;;4994385;28;20180;-49
2023/08/13 07:53:18;;;;;;;4.85;2.47;;;;;;;;;;4991188;28;20280;-48
2023/08/13 07:55:46;;;;;;;3.65;2.80;;;;;;;;;;4994820;28;20282;-48
2023/08/13 07:58:14;;;;;;;3.25;2.67;;;;;;;;;;4995709;28;20264;-48
2023/08/13 08:00:40;;;;;;;2.88;2.42;;;;;;;;;;5011415;28;20596;-48
2023/08/13 08:03:06;;;;;;;4.40;3.00;;;;;;;;;;5014495;28;20223;-48
2023/08/13 08:05:32;;;;;;;5.45;2.83;;;;;;;;;;5002933;28;20267;-48
2023/08/13 08:07:58;;;;;;;5.30;2.67;;;;;;;;;;5003451;28;20209;-48
2023/08/13 08:10:24;;;;;;;3.08;2.85;;;;;;;;;;4993934;28;20227;-48
2023/08/13 08:12:50;;;;;;;4.00;2.60;;;;;;;;;;5014477;28;20267;-48
2023/08/13 08:15:16;;;;;;;4.25;2.60;;;;;;;;;;4997065;28;20264;-48
2023/08/13 08:17:42;;;;;;;4.57;2.90;;;;;;;;;;4992938;28;20316;-47
2023/08/13 08:20:08;;;;;;;6.30;3.08;;;;;;;;;;4982134;28;20205;-48
2023/08/13 08:22:34;;;;;;;3.17;2.90;;;;;;;;;;4991308;28;20185;-48
2023/08/13 08:25:00;;;;;;;2.90;2.58;;;;;;;;;;4998041;28;20234;-48
2023/08/13 08:27:27;;;;;;;3.45;2.80;;;;;;;;;;4998928;28;20185;-48
2023/08/13 08:29:53;;;;;;;4.22;2.63;;;;;;;;;;4993141;28;20189;-48
2023/08/13 08:32:19;;;;;;;4.63;2.92;;;;;;;;;;5001733;28;20185;-48
2023/08/13 08:34:45;;;;;;;3.78;2.90;;;;;;;;;;4996778;28;20185;-48
2023/08/13 08:37:13;;;;;;;5.13;2.55;;;;;;;;;;5004932;28;20617;-49
2023/08/13 08:39:39;;;;;;;2.88;2.67;;;;;;;;;;5001666;28;20178;-48
2023/08/13 08:42:06;;;;;;;4.82;2.60;;;;;;;;;;5004854;28;20239;-48
2023/08/13 08:44:33;;;;;;;2.53;2.33;;;;;;;;;;5007317;28;20533;-48
2023/08/13 08:46:59;;;;;;;3.05;2.47;;;;;;;;;;4997976;28;20189;-48
2023/08/13 08:49:26;;;;;;;5.03;2.70;;;;;;;;;;4997141;28;20185;-48
2023/08/13 08:51:52;;;;;;;3.42;2.40;;;;;;;;;;4998281;28;20212;-48
2023/08/13 08:54:18;;;;;;;3.53;3.03;;;;;;;;;;4990530;28;20241;-48
2023/08/13 08:56:44;;;;;;;3.33;2.58;;;;;;;;;;4989913;28;20565;-48
2023/08/13 08:59:10;;;;;;;3.58;2.58;;;;;;;;;;4996579;28;20225;-48
2023/08/13 09:01:36;;;;;;;3.72;2.42;;;;;;;;;;5004490;28;20193;-48
2023/08/13 09:04:02;;;;;;;3.92;2.92;;;;;;;;;;4997108;28;20567;-48
2023/08/13 09:06:47;;;;;;;4.60;2.58;;;;;;;;;;5007140;28;20188;-48
2023/08/13 09:09:13;;;;;;;3.22;2.60;;;;;;;;;;5017593;28;20171;-49
2023/08/13 09:11:40;;;;;;;2.42;2.22;;;;;;;;;;5017796;28;20185;-48
2023/08/13 09:14:05;;;;;;;3.75;2.50;;;;;;;;;;5010475;28;20564;-48
2023/08/13 09:16:31;;;;;;;2.90;2.55;;;;;;;;;;4997135;28;20193;-49
2023/08/13 09:18:57;;;;;;;2.60;2.40;;;;;;;;;;4995137;28;20189;-48
2023/08/13 09:21:28;;;;;;;2.42;2.22;;;;;;;;;;4997879;28;20216;-49
2023/08/13 09:23:55;;;;;;;3.03;2.70;;;;;;;;;;4996593;28;20185;-48
2023/08/13 09:26:24;;;;;;;4.15;2.47;;;;;;;;;;4997648;28;20592;-48
2023/08/13 09:28:50;;;;;;;2.55;2.35;;;;;;;;;;4997503;28;20683;-48
2023/08/13 09:31:17;;;;;;;3.92;2.67;;;;;;;;;;4995603;28;20193;-49
2023/08/13 09:33:45;;;;;;;2.88;2.30;;;;;;;;;;4996479;28;20199;-49
2023/08/13 09:36:11;;;;;;;2.60;2.38;;;;;;;;;;4996670;28;20175;-49
2023/08/13 09:38:37;;;;;;;4.32;2.90;;;;;;;;;;4997515;28;20446;-49
2023/08/13 09:41:05;;;;;;;2.42;2.28;;;;;;;;;;4997041;28;20657;-49
2023/08/13 09:43:32;;;;;;;2.50;2.30;;;;;;;;;;4993360;28;20173;-48
2023/08/13 09:46:00;;;;;;;4.28;2.20;;;;;;;;;;4992780;28;20607;-49
2023/08/13 09:48:27;;;;;;;2.53;2.33;;;;;;;;;;4997071;28;20227;-48
2023/08/13 09:50:54;;;;;;;3.17;2.30;;;;;;;;;;4997255;28;20185;-48
2023/08/13 09:53:20;;;;;;;2.83;2.40;;;;;;;;;;4996209;28;20193;-48
2023/08/13 09:55:52;;;;;;;2.50;2.30;;;;;;;;;;4997637;28;20234;-48
2023/08/13 09:58:19;;;;;;;3.08;2.45;;;;;;;;;;4993482;28;20196;-48
2023/08/13 10:00:45;;;;;;;3.15;2.30;;;;;;;;;;4981924;28;20597;-48
2023/08/13 10:03:11;;;;;;;2.35;2.15;;;;;;;;;;4996612;28;20224;-48
2023/08/13 10:05:38;;;;;;;2.05;1.85;;;;;;;;;;4997578;28;20208;-48
2023/08/13 10:08:05;;;;;;;3.88;2.10;;;;;;;;;;5002293;28;20208;-48
2023/08/13 10:10:32;;;;;;;4.28;2.63;;;;;;;;;;4996564;28;20193;-48
2023/08/13 10:12:58;;;;;;;2.38;2.17;;;;;;;;;;4993145;28;20233;-48
2023/08/13 10:15:24;;;;;;;2.47;2.00;;;;;;;;;;4992528;28;20185;-49
2023/08/13 10:17:50;;;;;;;1.75;1.65;;;;;;;;;;4994846;28;20185;-49
2023/08/13 10:20:18;;;;;;;6.35;2.05;;;;;;;;;;4996302;28;20189;-48
2023/08/13 10:22:44;;;;;;;2.72;1.90;;;;;;;;;;4996063;28;20556;-49
2023/08/13 10:25:25;;;;;;;2.50;2.20;;;;;;;;;;4996337;28;20188;-49
2023/08/13 10:27:52;;;;;;;2.10;1.90;;;;;;;;;;5001432;28;20185;-49
2023/08/13 10:30:18;;;;;;;2.60;2.00;;;;;;;;;;4992366;28;20193;-48
2023/08/13 10:32:49;;;;;;;1.70;1.60;;;;;;;;;;4997476;28;20185;-48
2023/08/13 10:35:25;;;;;;;3.00;2.15;;;;;;;;;;4996638;28;20271;-48
2023/08/13 10:37:53;;;;;;;2.15;1.50;;;;;;;;;;4996021;28;20318;-48
2023/08/13 10:40:19;;;;;;;2.00;1.90;;;;;;;;;;4995059;28;20193;-48
2023/08/13 10:42:49;;;;;;;1.88;1.77;;;;;;;;;;4991059;28;20178;-48
2023/08/13 10:45:17;;;;;;;2.20;2.08;;;;;;;;;;4988852;28;20224;-48
2023/08/13 10:47:47;;;;;;;2.17;1.98;;;;;;;;;;4994752;28;20185;-49
2023/08/13 10:50:19;;;;;;;1.73;1.60;;;;;;;;;;4996032;28;20297;-48
2023/08/13 10:52:51;;;;;;;2.30;2.08;;;;;;;;;;5002973;28;20215;-48
2023/08/13 10:55:18;;;;;;;2.03;1.83;;;;;;;;;;4984140;28;20580;-48
2023/08/13 10:57:48;;;;;;;1.92;1.83;;;;;;;;;;4995702;28;20192;-49
2023/08/13 11:00:14;;;;;;;2.10;1.90;;;;;;;;;;4988020;28;20209;-48
2023/08/13 11:02:44;;;;;;;2.00;1.80;;;;;;;;;;4993894;28;20197;-48
2023/08/13 11:05:10;;;;;;;2.88;1.60;;;;;;;;;;5003073;28;20196;-48
2023/08/13 11:07:36;;;;;;;1.73;1.63;;;;;;;;;;4995424;28;20465;-48
2023/08/13 11:10:06;;;;;;;3.75;1.70;;;;;;;;;;4990524;28;20185;-48
2023/08/13 11:12:32;;;;;;;1.80;1.70;;;;;;;;;;4995602;28;20188;-48
2023/08/13 11:15:01;;;;;;;4.85;1.70;;;;;;;;;;4996243;28;20185;-49
2023/08/13 11:17:27;;;;;;;1.80;1.70;;;;;;;;;;4995333;28;20434;-48
2023/08/13 11:19:56;;;;;;;3.42;1.83;;;;;;;;;;4995334;28;20276;-48
2023/08/13 11:22:24;;;;;;;2.97;1.77;;;;;;;;;;4995439;28;20177;-48
2023/08/13 11:24:50;;;;;;;1.50;1.40;;;;;;;;;;4994302;28;20173;-48
2023/08/13 11:27:16;;;;;;;1.77;1.50;;;;;;;;;;4994009;28;20181;-48
2023/08/13 11:29:42;;;;;;;1.48;1.38;;;;;;;;;;4995332;28;20462;-48
2023/08/13 11:32:08;;;;;;;1.83;1.40;;;;;;;;;;4994894;28;20177;-52
2023/08/13 11:34:34;;;;;;;2.50;1.30;;;;;;;;;;4995722;28;20185;-48
2023/08/13 11:37:00;;;;;;;1.52;1.42;;;;;;;;;;4995431;28;20188;-48
2023/08/13 11:39:27;;;;;;;1.40;1.30;;;;;;;;;;4995455;28;20292;-47
2023/08/13 11:41:53;;;;;;;1.65;1.27;;;;;;;;;;4985565;28;20569;-49
2023/08/13 11:44:19;;;;;;;1.73;1.50;;;;;;;;;;5015031;28;20212;-48
2023/08/13 11:46:52;;;;;;;1.42;1.33;;;;;;;;;;5002199;28;20460;-49
2023/08/13 11:49:18;;;;;;;1.40;1.30;;;;;;;;;;4995540;28;20177;-49
2023/08/13 11:51:44;;;;;;;1.90;1.20;;;;;;;;;;4991717;28;20454;-48
2023/08/13 11:54:10;;;;;;;2.35;1.20;;;;;;;;;;4992534;28;20196;-48
2023/08/13 11:56:38;;;;;;;1.48;1.38;;;;;;;;;;4994716;28;20176;-48
2023/08/13 11:59:05;;;;;;;1.42;1.30;;;;;;;;;;4989931;28;20192;-49
2023/08/13 12:01:33;;;;;;;1.60;1.50;;;;;;;;;;4998496;28;20197;-48
2023/08/13 12:03:59;;;;;;;1.10;1.10;;;;;;;;;;4998507;28;20199;-48
2023/08/13 12:06:26;;;;;;;3.70;1.50;;;;;;;;;;4997266;28;20177;-49
2023/08/13 12:08:52;;;;;;;1.20;1.10;;;;;;;;;;5000018;28;20204;-48
2023/08/13 12:11:18;;;;;;;1.55;1.45;;;;;;;;;;4998918;28;20448;-48
2023/08/13 12:13:47;;;;;;;1.50;1.40;;;;;;;;;;4998152;28;20181;-49
2023/08/13 12:16:13;;;;;;;1.40;1.30;;;;;;;;;;4996381;28;20868;-49
2023/08/13 12:18:39;;;;;;;3.08;1.30;;;;;;;;;;4998653;28;20189;-48
2023/08/13 12:21:05;;;;;;;1.27;1.17;;;;;;;;;;4998360;28;20453;-49
2023/08/13 12:23:31;;;;;;;1.58;1.48;;;;;;;;;;4998143;28;20579;-48
2023/08/13 12:25:57;;;;;;;1.88;1.60;;;;;;;;;;4998935;28;20271;-48
2023/08/13 12:28:23;;;;;;;1.52;1.42;;;;;;;;;;4997045;28;20256;-48
2023/08/13 12:30:49;;;;;;;1.60;1.50;;;;;;;;;;4994718;28;20217;-49
2023/08/13 12:33:14;;;;;;;2.13;1.70;;;;;;;;;;4994209;28;20189;-48
2023/08/13 12:35:41;;;;;;;1.65;1.50;;;;;;;;;;4994059;28;20239;-48
2023/08/13 12:38:06;;;;;;;1.83;1.30;;;;;;;;;;4998102;28;20228;-49
2023/08/13 12:40:32;;;;;;;2.70;1.42;;;;;;;;;;4998133;28;20205;-48
2023/08/13 12:42:58;;;;;;;1.60;1.50;;;;;;;;;;4992060;28;20182;-48
2023/08/13 12:45:24;;;;;;;1.50;1.40;;;;;;;;;;4992320;28;20243;-49
2023/08/13 12:47:50;;;;;;;1.55;1.45;;;;;;;;;;4995126;28;20189;-49
2023/08/13 12:50:16;;;;;;;2.30;1.70;;;;;;;;;;5003324;28;20184;-49
2023/08/13 12:52:42;;;;;;;1.63;1.52;;;;;;;;;;5009506;28;20473;-48
2023/08/13 12:55:08;;;;;;;1.42;1.33;;;;;;;;;;4996041;28;20177;-49
2023/08/13 12:57:34;;;;;;;1.60;1.50;;;;;;;;;;4998207;28;20241;-48
2023/08/13 13:00:00;;;;;;;1.40;1.30;;;;;;;;;;4998282;28;20201;-49
2023/08/13 13:02:26;;;;;;;3.53;1.42;;;;;;;;;;4996528;28;20221;-48
2023/08/13 13:04:52;;;;;;;1.60;1.50;;;;;;;;;;4989239;28;20201;-48
2023/08/13 13:07:18;;;;;;;1.88;1.50;;;;;;;;;;5012039;28;20192;-49
2023/08/13 13:09:46;;;;;;;2.60;1.67;;;;;;;;;;4997169;28;20173;-49
2023/08/13 13:12:12;;;;;;;2.17;1.40;;;;;;;;;;4997260;28;20174;-49
2023/08/13 13:14:37;;;;;;;1.48;1.38;;;;;;;;;;4998117;28;20276;-49
2023/08/13 13:17:04;;;;;;;2.35;1.55;;;;;;;;;;4996702;28;20259;-48
2023/08/13 13:19:29;;;;;;;1.70;1.60;;;;;;;;;;4996211;28;20184;-48
2023/08/13 13:21:55;;;;;;;1.35;1.25;;;;;;;;;;4997416;28;20516;-49
2023/08/13 13:24:21;;;;;;;1.58;1.48;;;;;;;;;;4998009;28;20456;-49
2023/08/13 13:26:48;;;;;;;1.67;1.58;;;;;;;;;;4997704;28;20185;-48
2023/08/13 13:29:13;;;;;;;1.95;1.52;;;;;;;;;;4997005;28;20173;-49
2023/08/13 13:31:39;;;;;;;1.80;1.42;;;;;;;;;;5009809;28;20165;-49
2023/08/13 13:34:05;;;;;;;2.13;1.15;;;;;;;;;;5016428;28;20263;-49
2023/08/13 13:36:31;;;;;;;1.60;1.50;;;;;;;;;;5002730;28;20207;-49
2023/08/13 13:38:57;;;;;;;1.48;1.33;;;;;;;;;;4996473;28;20570;-49
2023/08/13 13:41:24;;;;;;;1.77;1.48;;;;;;;;;;4995943;28;20212;-49
2023/08/13 13:43:50;;;;;;;1.52;1.42;;;;;;;;;;4995709;28;20192;-49
2023/08/13 13:46:17;;;;;;;1.85;1.23;;;;;;;;;;4997322;28;20205;-49
2023/08/13 13:48:43;;;;;;;2.42;1.20;;;;;;;;;;4996893;28;20732;-48
2023/08/13 13:51:09;;;;;;;1.40;1.30;;;;;;;;;;4988096;28;20193;-49
2023/08/13 13:53:35;;;;;;;2.33;1.42;;;;;;;;;;4980903;28;20206;-49
2023/08/13 13:56:01;;;;;;;1.45;1.35;;;;;;;;;;4993021;28;20224;-49
2023/08/13 13:58:27;;;;;;;1.60;1.50;;;;;;;;;;4991066;28;20196;-48
2023/08/13 14:00:53;;;;;;;2.05;1.75;;;;;;;;;;4997644;28;20532;-49
2023/08/13 14:03:19;;;;;;;1.85;1.15;;;;;;;;;;4992152;28;20265;-50
2023/08/13 14:05:51;;;;;;;1.50;1.40;;;;;;;;;;5003054;28;20223;-49
2023/08/13 14:08:17;;;;;;;1.60;1.50;;;;;;;;;;5000715;28;20265;-49
2023/08/13 14:10:43;;;;;;;1.65;1.45;;;;;;;;;;4989345;28;20273;-50
2023/08/13 14:13:09;;;;;;;9.55;1.52;;;;;;;;;;4990448;28;20196;-50
2023/08/13 14:15:34;;;;;;;1.80;1.45;;;;;;;;;;5002163;28;20195;-50
2023/08/13 14:18:00;;;;;;;4.72;1.67;;;;;;;;;;4995953;28;20268;-50
2023/08/13 14:20:26;;;;;;;3.85;1.60;;;;;;;;;;4991437;28;20296;-50
2023/08/13 14:22:52;;;;;;;2.45;1.50;;;;;;;;;;4986586;28;20542;-50
2023/08/13 14:25:18;;;;;;;7.28;2.10;;;;;;;;;;4993795;28;20324;-53
2023/08/13 14:27:44;;;;;;;3.92;1.73;;;;;;;;;;4986059;28;20256;-50
2023/08/13 14:30:11;;;;;;;4.18;1.70;;;;;;;;;;4996030;28;20189;-50
2023/08/13 14:32:37;;;;;;;3.38;1.60;;;;;;;;;;5000226;28;20216;-50
2023/08/13 14:35:03;;;;;;;3.30;1.55;;;;;;;;;;4996496;28;20452;-50
2023/08/13 14:37:29;;;;;;;5.50;1.90;;;;;;;;;;4991645;28;20450;-50
2023/08/13 14:39:55;;;;;;;4.30;1.77;;;;;;;;;;4995709;28;20189;-50